sensor_id;sensor_type;location;lat;lon;timestamp;P1;durP1;ratioP1;P2;durP2;ratioP2
2548;SDS011;1284;53.520;10.248;2023-04-23T00:00:02;0.80;;;0.47;;
2548;SDS011;1284;53.520;10.248;2023-04-23T00:02:37;1.17;;;0.60;;
2548;SDS011;1284;53.520;10.248;2023-04-23T00:05:04;0.38;;;0.38;;
2548;SDS011;1284;53.520;10.248;2023-04-23T00:07:31;0.70;;;0.60;;
2548;SDS011;1284;53.520;10.248;2023-04-23T00:09:58;0.80;;;0.57;;
2548;SDS011;1284;53.520;10.248;2023-04-23T00:12:25;1.02;;;0.60;;
2548;SDS011;1284;53.520;10.248;2023-04-23T00:14:51;0.82;;;0.50;;
2548;SDS011;1284;53.520;10.248;2023-04-23T00:17:17;1.30;;;0.65;;
2548;SDS011;1284;53.520;10.248;2023-04-23T00:19:43;1.67;;;1.00;;
2548;SDS011;1284;53.520;10.248;2023-04-23T00:22:09;0.88;;;0.73;;
2548;SDS011;1284;53.520;10.248;2023-04-23T00:24:34;0.77;;;0.60;;
2548;SDS011;1284;53.520;10.248;2023-04-23T00:27:03;0.52;;;0.50;;
2548;SDS011;1284;53.520;10.248;2023-04-23T00:29:28;2.08;;;0.90;;
2548;SDS011;1284;53.520;10.248;2023-04-23T00:31:54;0.70;;;0.68;;
2548;SDS011;1284;53.520;10.248;2023-04-23T00:34:19;0.47;;;0.45;;
2548;SDS011;1284;53.520;10.248;2023-04-23T00:36:45;1.00;;;0.50;;
2548;SDS011;1284;53.520;10.248;2023-04-23T00:39:10;1.02;;;0.60;;
2548;SDS011;1284;53.520;10.248;2023-04-23T00:41:36;1.20;;;0.70;;
2548;SDS011;1284;53.520;10.248;2023-04-23T00:44:01;1.13;;;0.90;;
2548;SDS011;1284;53.520;10.248;2023-04-23T00:46:27;1.38;;;0.65;;
2548;SDS011;1284;53.520;10.248;2023-04-23T00:48:53;1.23;;;0.68;;
2548;SDS011;1284;53.520;10.248;2023-04-23T00:51:19;0.52;;;0.40;;
2548;SDS011;1284;53.520;10.248;2023-04-23T00:53:45;1.25;;;0.70;;
2548;SDS011;1284;53.520;10.248;2023-04-23T00:56:11;1.10;;;0.82;;
2548;SDS011;1284;53.520;10.248;2023-04-23T00:58:37;1.13;;;0.68;;
2548;SDS011;1284;53.520;10.248;2023-04-23T01:01:03;3.05;;;1.10;;
2548;SDS011;1284;53.520;10.248;2023-04-23T01:03:29;2.65;;;1.02;;
2548;SDS011;1284;53.520;10.248;2023-04-23T01:05:56;2.20;;;0.63;;
2548;SDS011;1284;53.520;10.248;2023-04-23T01:08:22;1.52;;;1.00;;
2548;SDS011;1284;53.520;10.248;2023-04-23T01:10:50;1.95;;;0.95;;
2548;SDS011;1284;53.520;10.248;2023-04-23T01:13:17;1.30;;;1.00;;
2548;SDS011;1284;53.520;10.248;2023-04-23T01:15:43;1.20;;;0.63;;
2548;SDS011;1284;53.520;10.248;2023-04-23T01:18:10;2.30;;;1.20;;
2548;SDS011;1284;53.520;10.248;2023-04-23T01:20:37;1.45;;;0.75;;
2548;SDS011;1284;53.520;10.248;2023-04-23T01:23:04;1.35;;;0.82;;
2548;SDS011;1284;53.520;10.248;2023-04-23T01:25:30;1.08;;;0.98;;
2548;SDS011;1284;53.520;10.248;2023-04-23T01:27:56;1.80;;;1.02;;
2548;SDS011;1284;53.520;10.248;2023-04-23T01:30:23;1.23;;;0.90;;
2548;SDS011;1284;53.520;10.248;2023-04-23T01:32:51;1.38;;;0.80;;
2548;SDS011;1284;53.520;10.248;2023-04-23T01:35:18;1.60;;;1.00;;
2548;SDS011;1284;53.520;10.248;2023-04-23T01:37:44;1.88;;;1.00;;
2548;SDS011;1284;53.520;10.248;2023-04-23T01:40:10;2.80;;;1.13;;
2548;SDS011;1284;53.520;10.248;2023-04-23T01:42:36;1.58;;;1.00;;
2548;SDS011;1284;53.520;10.248;2023-04-23T01:45:05;1.10;;;0.90;;
2548;SDS011;1284;53.520;10.248;2023-04-23T01:47:32;1.58;;;0.90;;
2548;SDS011;1284;53.520;10.248;2023-04-23T01:49:59;1.08;;;0.77;;
2548;SDS011;1284;53.520;10.248;2023-04-23T01:52:24;2.25;;;0.90;;
2548;SDS011;1284;53.520;10.248;2023-04-23T01:54:50;0.70;;;0.70;;
2548;SDS011;1284;53.520;10.248;2023-04-23T01:57:16;0.82;;;0.75;;
2548;SDS011;1284;53.520;10.248;2023-04-23T01:59:48;1.85;;;1.00;;
2548;SDS011;1284;53.520;10.248;2023-04-23T02:02:14;1.42;;;0.75;;
2548;SDS011;1284;53.520;10.248;2023-04-23T02:04:40;2.05;;;1.30;;
2548;SDS011;1284;53.520;10.248;2023-04-23T02:07:09;1.20;;;1.02;;
2548;SDS011;1284;53.520;10.248;2023-04-23T02:09:35;1.90;;;0.80;;
2548;SDS011;1284;53.520;10.248;2023-04-23T02:12:01;0.95;;;0.47;;
2548;SDS011;1284;53.520;10.248;2023-04-23T02:14:27;1.58;;;0.90;;
2548;SDS011;1284;53.520;10.248;2023-04-23T02:16:53;1.90;;;0.80;;
2548;SDS011;1284;53.520;10.248;2023-04-23T02:19:20;2.60;;;1.13;;
2548;SDS011;1284;53.520;10.248;2023-04-23T02:21:45;2.90;;;1.00;;
2548;SDS011;1284;53.520;10.248;2023-04-23T02:24:11;1.13;;;0.82;;
2548;SDS011;1284;53.520;10.248;2023-04-23T02:26:37;1.55;;;0.93;;
2548;SDS011;1284;53.520;10.248;2023-04-23T02:29:02;1.92;;;0.95;;
2548;SDS011;1284;53.520;10.248;2023-04-23T02:31:27;1.10;;;0.98;;
2548;SDS011;1284;53.520;10.248;2023-04-23T02:33:53;1.83;;;0.90;;
2548;SDS011;1284;53.520;10.248;2023-04-23T02:36:19;1.90;;;1.23;;
2548;SDS011;1284;53.520;10.248;2023-04-23T02:38:44;0.90;;;0.80;;
2548;SDS011;1284;53.520;10.248;2023-04-23T02:41:15;2.05;;;1.23;;
2548;SDS011;1284;53.520;10.248;2023-04-23T02:43:41;1.27;;;0.73;;
2548;SDS011;1284;53.520;10.248;2023-04-23T02:46:06;2.20;;;1.23;;
2548;SDS011;1284;53.520;10.248;2023-04-23T02:48:36;3.38;;;0.88;;
2548;SDS011;1284;53.520;10.248;2023-04-23T02:51:03;2.10;;;0.90;;
2548;SDS011;1284;53.520;10.248;2023-04-23T02:53:30;2.08;;;1.35;;
2548;SDS011;1284;53.520;10.248;2023-04-23T02:55:56;2.50;;;1.60;;
2548;SDS011;1284;53.520;10.248;2023-04-23T02:58:22;1.80;;;1.27;;
2548;SDS011;1284;53.520;10.248;2023-04-23T03:00:49;2.63;;;1.55;;
2548;SDS011;1284;53.520;10.248;2023-04-23T03:03:15;5.00;;;2.03;;
2548;SDS011;1284;53.520;10.248;2023-04-23T03:05:41;2.25;;;1.58;;
2548;SDS011;1284;53.520;10.248;2023-04-23T03:08:06;4.32;;;2.13;;
2548;SDS011;1284;53.520;10.248;2023-04-23T03:10:32;4.45;;;1.83;;
2548;SDS011;1284;53.520;10.248;2023-04-23T03:12:57;2.47;;;1.58;;
2548;SDS011;1284;53.520;10.248;2023-04-23T03:15:24;1.73;;;1.48;;
2548;SDS011;1284;53.520;10.248;2023-04-23T03:17:49;4.15;;;1.60;;
2548;SDS011;1284;53.520;10.248;2023-04-23T03:20:17;3.38;;;1.98;;
2548;SDS011;1284;53.520;10.248;2023-04-23T03:22:43;3.90;;;1.88;;
2548;SDS011;1284;53.520;10.248;2023-04-23T03:25:13;3.00;;;2.00;;
2548;SDS011;1284;53.520;10.248;2023-04-23T03:27:38;2.92;;;1.65;;
2548;SDS011;1284;53.520;10.248;2023-04-23T03:30:05;5.82;;;2.03;;
2548;SDS011;1284;53.520;10.248;2023-04-23T03:32:33;3.58;;;2.28;;
2548;SDS011;1284;53.520;10.248;2023-04-23T03:34:59;4.43;;;2.03;;
2548;SDS011;1284;53.520;10.248;2023-04-23T03:37:25;3.20;;;1.65;;
2548;SDS011;1284;53.520;10.248;2023-04-23T03:39:52;4.38;;;2.38;;
2548;SDS011;1284;53.520;10.248;2023-04-23T03:42:17;7.25;;;2.75;;
2548;SDS011;1284;53.520;10.248;2023-04-23T03:44:43;4.30;;;2.55;;
2548;SDS011;1284;53.520;10.248;2023-04-23T03:47:08;6.93;;;2.00;;
2548;SDS011;1284;53.520;10.248;2023-04-23T03:49:35;3.30;;;2.28;;
2548;SDS011;1284;53.520;10.248;2023-04-23T03:52:01;4.15;;;2.05;;
2548;SDS011;1284;53.520;10.248;2023-04-23T03:54:28;6.05;;;2.03;;
2548;SDS011;1284;53.520;10.248;2023-04-23T03:57:12;2.83;;;1.92;;
2548;SDS011;1284;53.520;10.248;2023-04-23T03:59:51;4.32;;;1.65;;
2548;SDS011;1284;53.520;10.248;2023-04-23T04:02:16;5.18;;;2.00;;
2548;SDS011;1284;53.520;10.248;2023-04-23T04:04:42;2.95;;;1.45;;
2548;SDS011;1284;53.520;10.248;2023-04-23T04:07:10;5.32;;;2.00;;
2548;SDS011;1284;53.520;10.248;2023-04-23T04:09:38;3.03;;;1.60;;
2548;SDS011;1284;53.520;10.248;2023-04-23T04:12:04;2.72;;;1.80;;
2548;SDS011;1284;53.520;10.248;2023-04-23T04:14:30;3.05;;;2.13;;
2548;SDS011;1284;53.520;10.248;2023-04-23T04:16:56;3.25;;;1.35;;
2548;SDS011;1284;53.520;10.248;2023-04-23T04:19:22;3.33;;;1.83;;
2548;SDS011;1284;53.520;10.248;2023-04-23T04:21:48;4.38;;;1.50;;
2548;SDS011;1284;53.520;10.248;2023-04-23T04:24:14;4.03;;;1.60;;
2548;SDS011;1284;53.520;10.248;2023-04-23T04:26:39;3.03;;;1.20;;
2548;SDS011;1284;53.520;10.248;2023-04-23T04:29:05;2.90;;;1.60;;
2548;SDS011;1284;53.520;10.248;2023-04-23T04:31:31;2.17;;;1.25;;
2548;SDS011;1284;53.520;10.248;2023-04-23T04:33:56;1.45;;;0.80;;
2548;SDS011;1284;53.520;10.248;2023-04-23T04:36:25;2.28;;;1.35;;
2548;SDS011;1284;53.520;10.248;2023-04-23T04:38:51;11.40;;;1.98;;
2548;SDS011;1284;53.520;10.248;2023-04-23T04:41:20;2.47;;;1.25;;
2548;SDS011;1284;53.520;10.248;2023-04-23T04:43:46;2.70;;;1.60;;
2548;SDS011;1284;53.520;10.248;2023-04-23T04:46:12;2.33;;;1.23;;
2548;SDS011;1284;53.520;10.248;2023-04-23T04:48:38;2.65;;;1.38;;
2548;SDS011;1284;53.520;10.248;2023-04-23T04:51:04;1.80;;;1.27;;
2548;SDS011;1284;53.520;10.248;2023-04-23T04:53:29;2.90;;;1.52;;
2548;SDS011;1284;53.520;10.248;2023-04-23T04:55:55;1.88;;;1.10;;
2548;SDS011;1284;53.520;10.248;2023-04-23T04:58:20;2.55;;;1.60;;
2548;SDS011;1284;53.520;10.248;2023-04-23T05:00:46;2.28;;;1.35;;
2548;SDS011;1284;53.520;10.248;2023-04-23T05:03:15;2.05;;;1.38;;
2548;SDS011;1284;53.520;10.248;2023-04-23T05:05:41;2.25;;;1.30;;
2548;SDS011;1284;53.520;10.248;2023-04-23T05:08:06;0.90;;;0.85;;
2548;SDS011;1284;53.520;10.248;2023-04-23T05:10:32;2.33;;;1.42;;
2548;SDS011;1284;53.520;10.248;2023-04-23T05:12:58;3.13;;;1.35;;
2548;SDS011;1284;53.520;10.248;2023-04-23T05:15:45;1.45;;;1.20;;
2548;SDS011;1284;53.520;10.248;2023-04-23T05:18:12;0.60;;;0.60;;
2548;SDS011;1284;53.520;10.248;2023-04-23T05:20:37;1.50;;;0.95;;
2548;SDS011;1284;53.520;10.248;2023-04-23T05:23:03;0.88;;;0.80;;
2548;SDS011;1284;53.520;10.248;2023-04-23T05:25:29;1.05;;;0.82;;
2548;SDS011;1284;53.520;10.248;2023-04-23T05:27:55;1.60;;;1.10;;
2548;SDS011;1284;53.520;10.248;2023-04-23T05:30:21;2.08;;;1.25;;
2548;SDS011;1284;53.520;10.248;2023-04-23T05:32:47;0.82;;;0.68;;
2548;SDS011;1284;53.520;10.248;2023-04-23T05:35:13;1.85;;;1.13;;
2548;SDS011;1284;53.520;10.248;2023-04-23T05:37:42;2.00;;;0.93;;
2548;SDS011;1284;53.520;10.248;2023-04-23T05:40:07;1.38;;;0.75;;
2548;SDS011;1284;53.520;10.248;2023-04-23T05:42:34;1.33;;;1.23;;
2548;SDS011;1284;53.520;10.248;2023-04-23T05:45:00;0.80;;;0.50;;
2548;SDS011;1284;53.520;10.248;2023-04-23T05:47:27;1.20;;;0.68;;
2548;SDS011;1284;53.520;10.248;2023-04-23T05:49:53;1.77;;;1.17;;
2548;SDS011;1284;53.520;10.248;2023-04-23T05:52:18;2.92;;;1.13;;
2548;SDS011;1284;53.520;10.248;2023-04-23T05:54:44;1.75;;;1.15;;
2548;SDS011;1284;53.520;10.248;2023-04-23T05:57:09;0.77;;;0.68;;
2548;SDS011;1284;53.520;10.248;2023-04-23T05:59:55;0.88;;;0.60;;
2548;SDS011;1284;53.520;10.248;2023-04-23T06:02:20;1.75;;;0.68;;
2548;SDS011;1284;53.520;10.248;2023-04-23T06:04:46;2.00;;;0.95;;
2548;SDS011;1284;53.520;10.248;2023-04-23T06:07:11;1.83;;;0.70;;
2548;SDS011;1284;53.520;10.248;2023-04-23T06:09:39;1.52;;;0.55;;
2548;SDS011;1284;53.520;10.248;2023-04-23T06:12:05;0.68;;;0.63;;
2548;SDS011;1284;53.520;10.248;2023-04-23T06:14:30;1.25;;;0.88;;
2548;SDS011;1284;53.520;10.248;2023-04-23T06:16:56;1.33;;;0.75;;
2548;SDS011;1284;53.520;10.248;2023-04-23T06:19:21;0.90;;;0.40;;
2548;SDS011;1284;53.520;10.248;2023-04-23T06:21:50;0.82;;;0.68;;
2548;SDS011;1284;53.520;10.248;2023-04-23T06:24:19;1.88;;;0.63;;
2548;SDS011;1284;53.520;10.248;2023-04-23T06:26:44;0.85;;;0.80;;
2548;SDS011;1284;53.520;10.248;2023-04-23T06:29:14;1.38;;;0.75;;
2548;SDS011;1284;53.520;10.248;2023-04-23T06:34:31;1.00;;;0.57;;
2548;SDS011;1284;53.520;10.248;2023-04-23T06:36:56;0.82;;;0.65;;
2548;SDS011;1284;53.520;10.248;2023-04-23T06:39:22;0.82;;;0.43;;
2548;SDS011;1284;53.520;10.248;2023-04-23T06:41:47;0.73;;;0.60;;
2548;SDS011;1284;53.520;10.248;2023-04-23T06:44:32;0.65;;;0.57;;
2548;SDS011;1284;53.520;10.248;2023-04-23T06:46:58;2.30;;;0.47;;
2548;SDS011;1284;53.520;10.248;2023-04-23T06:49:25;0.85;;;0.73;;
2548;SDS011;1284;53.520;10.248;2023-04-23T06:51:50;1.38;;;0.73;;
2548;SDS011;1284;53.520;10.248;2023-04-23T06:54:16;1.00;;;0.50;;
2548;SDS011;1284;53.520;10.248;2023-04-23T06:56:41;1.88;;;0.88;;
2548;SDS011;1284;53.520;10.248;2023-04-23T06:59:06;0.63;;;0.63;;
2548;SDS011;1284;53.520;10.248;2023-04-23T07:01:36;2.88;;;1.20;;
2548;SDS011;1284;53.520;10.248;2023-04-23T07:04:01;1.15;;;1.05;;
2548;SDS011;1284;53.520;10.248;2023-04-23T07:06:27;2.10;;;0.98;;
2548;SDS011;1284;53.520;10.248;2023-04-23T07:08:52;1.25;;;0.82;;
2548;SDS011;1284;53.520;10.248;2023-04-23T07:11:21;0.90;;;0.60;;
2548;SDS011;1284;53.520;10.248;2023-04-23T07:13:46;0.65;;;0.52;;
2548;SDS011;1284;53.520;10.248;2023-04-23T07:16:11;0.73;;;0.73;;
2548;SDS011;1284;53.520;10.248;2023-04-23T07:18:37;1.95;;;1.00;;
2548;SDS011;1284;53.520;10.248;2023-04-23T07:21:03;2.10;;;0.85;;
2548;SDS011;1284;53.520;10.248;2023-04-23T07:23:28;1.13;;;0.88;;
2548;SDS011;1284;53.520;10.248;2023-04-23T07:25:53;1.77;;;0.95;;
2548;SDS011;1284;53.520;10.248;2023-04-23T07:28:19;2.28;;;0.93;;
2548;SDS011;1284;53.520;10.248;2023-04-23T07:30:44;0.52;;;0.52;;
2548;SDS011;1284;53.520;10.248;2023-04-23T07:33:10;1.52;;;1.23;;
2548;SDS011;1284;53.520;10.248;2023-04-23T07:35:36;1.10;;;0.73;;
2548;SDS011;1284;53.520;10.248;2023-04-23T07:38:01;2.47;;;0.73;;
2548;SDS011;1284;53.520;10.248;2023-04-23T07:40:28;1.98;;;0.82;;
2548;SDS011;1284;53.520;10.248;2023-04-23T07:42:53;0.45;;;0.45;;
2548;SDS011;1284;53.520;10.248;2023-04-23T07:45:19;0.73;;;0.60;;
2548;SDS011;1284;53.520;10.248;2023-04-23T07:47:45;1.50;;;1.02;;
2548;SDS011;1284;53.520;10.248;2023-04-23T07:50:11;0.93;;;0.73;;
2548;SDS011;1284;53.520;10.248;2023-04-23T07:52:37;2.35;;;1.00;;
2548;SDS011;1284;53.520;10.248;2023-04-23T07:55:03;0.93;;;0.60;;
2548;SDS011;1284;53.520;10.248;2023-04-23T07:57:29;1.40;;;0.85;;
2548;SDS011;1284;53.520;10.248;2023-04-23T07:59:55;0.80;;;0.50;;
2548;SDS011;1284;53.520;10.248;2023-04-23T08:02:20;0.50;;;0.50;;
2548;SDS011;1284;53.520;10.248;2023-04-23T08:04:50;2.65;;;1.10;;
2548;SDS011;1284;53.520;10.248;2023-04-23T08:07:16;1.38;;;0.88;;
2548;SDS011;1284;53.520;10.248;2023-04-23T08:09:41;1.15;;;0.70;;
2548;SDS011;1284;53.520;10.248;2023-04-23T08:12:07;1.05;;;0.70;;
2548;SDS011;1284;53.520;10.248;2023-04-23T08:14:32;1.63;;;0.55;;
2548;SDS011;1284;53.520;10.248;2023-04-23T08:17:01;0.68;;;0.65;;
2548;SDS011;1284;53.520;10.248;2023-04-23T08:19:26;1.00;;;0.65;;
2548;SDS011;1284;53.520;10.248;2023-04-23T08:21:55;3.08;;;0.90;;
2548;SDS011;1284;53.520;10.248;2023-04-23T08:24:21;0.68;;;0.60;;
2548;SDS011;1284;53.520;10.248;2023-04-23T08:26:46;3.38;;;0.68;;
2548;SDS011;1284;53.520;10.248;2023-04-23T08:29:13;0.30;;;0.30;;
2548;SDS011;1284;53.520;10.248;2023-04-23T08:31:38;1.08;;;0.60;;
2548;SDS011;1284;53.520;10.248;2023-04-23T08:34:04;1.35;;;0.82;;
2548;SDS011;1284;53.520;10.248;2023-04-23T08:36:32;0.57;;;0.50;;
2548;SDS011;1284;53.520;10.248;2023-04-23T08:38:57;0.98;;;0.47;;
2548;SDS011;1284;53.520;10.248;2023-04-23T08:41:25;1.23;;;0.73;;
2548;SDS011;1284;53.520;10.248;2023-04-23T08:44:00;0.73;;;0.47;;
2548;SDS011;1284;53.520;10.248;2023-04-23T08:46:26;1.48;;;0.50;;
2548;SDS011;1284;53.520;10.248;2023-04-23T08:48:57;0.87;;;0.60;;
2548;SDS011;1284;53.520;10.248;2023-04-23T08:51:24;1.05;;;0.40;;
2548;SDS011;1284;53.520;10.248;2023-04-23T08:53:55;1.58;;;0.75;;
2548;SDS011;1284;53.520;10.248;2023-04-23T08:56:23;0.98;;;0.80;;
2548;SDS011;1284;53.520;10.248;2023-04-23T08:58:51;0.80;;;0.50;;
2548;SDS011;1284;53.520;10.248;2023-04-23T09:01:17;0.90;;;0.32;;
2548;SDS011;1284;53.520;10.248;2023-04-23T09:03:43;1.02;;;0.43;;
2548;SDS011;1284;53.520;10.248;2023-04-23T09:06:12;0.90;;;0.65;;
2548;SDS011;1284;53.520;10.248;2023-04-23T09:08:38;1.15;;;0.63;;
2548;SDS011;1284;53.520;10.248;2023-04-23T09:11:03;0.60;;;0.45;;
2548;SDS011;1284;53.520;10.248;2023-04-23T09:13:30;0.70;;;0.60;;
2548;SDS011;1284;53.520;10.248;2023-04-23T09:15:58;2.03;;;0.50;;
2548;SDS011;1284;53.520;10.248;2023-04-23T09:18:24;1.23;;;0.60;;
2548;SDS011;1284;53.520;10.248;2023-04-23T09:20:49;1.17;;;0.70;;
2548;SDS011;1284;53.520;10.248;2023-04-23T09:23:17;0.43;;;0.40;;
2548;SDS011;1284;53.520;10.248;2023-04-23T09:25:45;1.55;;;0.80;;
2548;SDS011;1284;53.520;10.248;2023-04-23T09:28:11;0.57;;;0.40;;
2548;SDS011;1284;53.520;10.248;2023-04-23T09:30:44;1.80;;;0.70;;
2548;SDS011;1284;53.520;10.248;2023-04-23T09:33:10;0.63;;;0.40;;
2548;SDS011;1284;53.520;10.248;2023-04-23T09:35:36;0.88;;;0.70;;
2548;SDS011;1284;53.520;10.248;2023-04-23T09:38:02;0.65;;;0.35;;
2548;SDS011;1284;53.520;10.248;2023-04-23T09:40:32;1.27;;;0.73;;
2548;SDS011;1284;53.520;10.248;2023-04-23T09:43:02;1.05;;;0.40;;
2548;SDS011;1284;53.520;10.248;2023-04-23T09:45:28;1.52;;;0.70;;
2548;SDS011;1284;53.520;10.248;2023-04-23T09:47:55;1.50;;;0.63;;
2548;SDS011;1284;53.520;10.248;2023-04-23T09:50:32;1.27;;;0.68;;
2548;SDS011;1284;53.520;10.248;2023-04-23T09:52:58;0.90;;;0.90;;
2548;SDS011;1284;53.520;10.248;2023-04-23T09:55:27;1.48;;;0.82;;
2548;SDS011;1284;53.520;10.248;2023-04-23T09:57:55;1.83;;;0.88;;
2548;SDS011;1284;53.520;10.248;2023-04-23T10:00:20;1.20;;;0.75;;
2548;SDS011;1284;53.520;10.248;2023-04-23T10:02:50;2.28;;;0.82;;
2548;SDS011;1284;53.520;10.248;2023-04-23T10:05:17;1.30;;;0.43;;
2548;SDS011;1284;53.520;10.248;2023-04-23T10:07:44;1.25;;;0.77;;
2548;SDS011;1284;53.520;10.248;2023-04-23T10:10:14;1.88;;;0.75;;
2548;SDS011;1284;53.520;10.248;2023-04-23T10:12:43;2.13;;;0.80;;
2548;SDS011;1284;53.520;10.248;2023-04-23T10:15:09;2.38;;;1.20;;
2548;SDS011;1284;53.520;10.248;2023-04-23T10:17:36;2.30;;;1.10;;
2548;SDS011;1284;53.520;10.248;2023-04-23T10:20:02;2.22;;;1.00;;
2548;SDS011;1284;53.520;10.248;2023-04-23T10:22:29;0.80;;;0.70;;
2548;SDS011;1284;53.520;10.248;2023-04-23T10:24:57;2.30;;;0.70;;
2548;SDS011;1284;53.520;10.248;2023-04-23T10:27:25;1.42;;;0.68;;
2548;SDS011;1284;53.520;10.248;2023-04-23T10:29:53;1.50;;;1.00;;
2548;SDS011;1284;53.520;10.248;2023-04-23T10:32:19;1.48;;;0.50;;
2548;SDS011;1284;53.520;10.248;2023-04-23T10:34:45;1.00;;;0.80;;
2548;SDS011;1284;53.520;10.248;2023-04-23T10:37:12;2.22;;;0.70;;
2548;SDS011;1284;53.520;10.248;2023-04-23T10:39:40;0.68;;;0.60;;
2548;SDS011;1284;53.520;10.248;2023-04-23T10:42:08;1.63;;;0.82;;
2548;SDS011;1284;53.520;10.248;2023-04-23T10:44:38;1.27;;;0.73;;
2548;SDS011;1284;53.520;10.248;2023-04-23T10:47:09;1.63;;;1.00;;
2548;SDS011;1284;53.520;10.248;2023-04-23T10:49:37;1.33;;;0.85;;
2548;SDS011;1284;53.520;10.248;2023-04-23T10:52:07;1.95;;;0.60;;
2548;SDS011;1284;53.520;10.248;2023-04-23T10:54:41;0.50;;;0.50;;
2548;SDS011;1284;53.520;10.248;2023-04-23T10:57:07;1.98;;;1.23;;
2548;SDS011;1284;53.520;10.248;2023-04-23T10:59:38;1.17;;;0.82;;
2548;SDS011;1284;53.520;10.248;2023-04-23T11:02:05;1.25;;;0.70;;
2548;SDS011;1284;53.520;10.248;2023-04-23T11:04:33;0.82;;;0.73;;
2548;SDS011;1284;53.520;10.248;2023-04-23T11:07:04;1.58;;;0.82;;
2548;SDS011;1284;53.520;10.248;2023-04-23T11:09:38;2.15;;;1.08;;
2548;SDS011;1284;53.520;10.248;2023-04-23T11:12:30;1.80;;;1.17;;
2548;SDS011;1284;53.520;10.248;2023-04-23T11:14:57;2.25;;;0.90;;
2548;SDS011;1284;53.520;10.248;2023-04-23T11:22:47;1.67;;;1.10;;
2548;SDS011;1284;53.520;10.248;2023-04-23T11:25:35;1.52;;;0.82;;
2548;SDS011;1284;53.520;10.248;2023-04-23T11:27:59;1.35;;;0.65;;
2548;SDS011;1284;53.520;10.248;2023-04-23T11:30:26;1.85;;;1.05;;
2548;SDS011;1284;53.520;10.248;2023-04-23T11:32:54;2.53;;;1.40;;
2548;SDS011;1284;53.520;10.248;2023-04-23T11:35:23;3.70;;;1.48;;
2548;SDS011;1284;53.520;10.248;2023-04-23T11:37:52;2.03;;;1.10;;
2548;SDS011;1284;53.520;10.248;2023-04-23T11:40:18;1.45;;;1.13;;
2548;SDS011;1284;53.520;10.248;2023-04-23T11:42:46;2.22;;;1.38;;
2548;SDS011;1284;53.520;10.248;2023-04-23T11:45:21;2.53;;;1.30;;
2548;SDS011;1284;53.520;10.248;2023-04-23T11:47:52;1.65;;;0.90;;
2548;SDS011;1284;53.520;10.248;2023-04-23T11:52:49;1.48;;;0.93;;
2548;SDS011;1284;53.520;10.248;2023-04-23T11:55:15;1.67;;;1.10;;
2548;SDS011;1284;53.520;10.248;2023-04-23T11:57:41;1.98;;;1.10;;
2548;SDS011;1284;53.520;10.248;2023-04-23T12:05:19;1.63;;;1.00;;
2548;SDS011;1284;53.520;10.248;2023-04-23T12:07:52;2.67;;;1.10;;
2548;SDS011;1284;53.520;10.248;2023-04-23T12:10:18;1.52;;;1.00;;
2548;SDS011;1284;53.520;10.248;2023-04-23T12:12:49;1.70;;;1.00;;
2548;SDS011;1284;53.520;10.248;2023-04-23T12:15:18;1.70;;;1.10;;
2548;SDS011;1284;53.520;10.248;2023-04-23T12:17:48;2.03;;;0.93;;
2548;SDS011;1284;53.520;10.248;2023-04-23T12:20:16;1.05;;;0.77;;
2548;SDS011;1284;53.520;10.248;2023-04-23T12:22:43;1.65;;;0.80;;
2548;SDS011;1284;53.520;10.248;2023-04-23T12:25:08;1.70;;;1.33;;
2548;SDS011;1284;53.520;10.248;2023-04-23T12:27:37;0.73;;;0.63;;
2548;SDS011;1284;53.520;10.248;2023-04-23T12:30:08;1.23;;;0.68;;
2548;SDS011;1284;53.520;10.248;2023-04-23T12:32:39;0.82;;;0.80;;
2548;SDS011;1284;53.520;10.248;2023-04-23T12:35:05;1.33;;;0.80;;
2548;SDS011;1284;53.520;10.248;2023-04-23T12:37:34;0.98;;;0.70;;
2548;SDS011;1284;53.520;10.248;2023-04-23T12:40:01;1.00;;;0.68;;
2548;SDS011;1284;53.520;10.248;2023-04-23T12:42:26;0.75;;;0.70;;
2548;SDS011;1284;53.520;10.248;2023-04-23T12:44:52;1.70;;;1.17;;
2548;SDS011;1284;53.520;10.248;2023-04-23T12:47:19;1.85;;;1.20;;
2548;SDS011;1284;53.520;10.248;2023-04-23T12:49:45;0.77;;;0.63;;
2548;SDS011;1284;53.520;10.248;2023-04-23T12:52:13;0.95;;;0.75;;
2548;SDS011;1284;53.520;10.248;2023-04-23T12:54:39;0.88;;;0.60;;
2548;SDS011;1284;53.520;10.248;2023-04-23T12:57:05;0.70;;;0.40;;
2548;SDS011;1284;53.520;10.248;2023-04-23T12:59:32;0.80;;;0.68;;
2548;SDS011;1284;53.520;10.248;2023-04-23T13:01:58;2.67;;;1.30;;
2548;SDS011;1284;53.520;10.248;2023-04-23T13:04:28;0.57;;;0.50;;
2548;SDS011;1284;53.520;10.248;2023-04-23T13:06:53;0.85;;;0.63;;
2548;SDS011;1284;53.520;10.248;2023-04-23T13:09:19;0.95;;;0.60;;
2548;SDS011;1284;53.520;10.248;2023-04-23T13:11:46;0.50;;;0.50;;
2548;SDS011;1284;53.520;10.248;2023-04-23T13:14:14;1.65;;;0.57;;
2548;SDS011;1284;53.520;10.248;2023-04-23T13:16:40;0.88;;;0.50;;
2548;SDS011;1284;53.520;10.248;2023-04-23T13:19:06;0.50;;;0.45;;
2548;SDS011;1284;53.520;10.248;2023-04-23T13:21:31;1.13;;;0.65;;
2548;SDS011;1284;53.520;10.248;2023-04-23T13:23:57;1.90;;;0.88;;
2548;SDS011;1284;53.520;10.248;2023-04-23T13:26:23;1.00;;;0.55;;
2548;SDS011;1284;53.520;10.248;2023-04-23T13:28:48;1.25;;;0.85;;
2548;SDS011;1284;53.520;10.248;2023-04-23T13:31:14;2.80;;;1.60;;
2548;SDS011;1284;53.520;10.248;2023-04-23T13:33:40;7.93;;;2.95;;
2548;SDS011;1284;53.520;10.248;2023-04-23T13:36:07;1.50;;;1.10;;
2548;SDS011;1284;53.520;10.248;2023-04-23T13:38:33;0.73;;;0.50;;
2548;SDS011;1284;53.520;10.248;2023-04-23T13:40:59;1.30;;;0.70;;
2548;SDS011;1284;53.520;10.248;2023-04-23T13:43:24;0.57;;;0.50;;
2548;SDS011;1284;53.520;10.248;2023-04-23T13:45:53;0.85;;;0.40;;
2548;SDS011;1284;53.520;10.248;2023-04-23T13:48:19;0.85;;;0.43;;
2548;SDS011;1284;53.520;10.248;2023-04-23T13:50:45;0.90;;;0.43;;
2548;SDS011;1284;53.520;10.248;2023-04-23T13:53:10;0.50;;;0.40;;
2548;SDS011;1284;53.520;10.248;2023-04-23T13:55:36;0.60;;;0.40;;
2548;SDS011;1284;53.520;10.248;2023-04-23T13:58:03;0.73;;;0.40;;
2548;SDS011;1284;53.520;10.248;2023-04-23T14:00:29;2.67;;;0.43;;
2548;SDS011;1284;53.520;10.248;2023-04-23T14:02:55;0.50;;;0.50;;
2548;SDS011;1284;53.520;10.248;2023-04-23T14:05:20;1.67;;;0.43;;
2548;SDS011;1284;53.520;10.248;2023-04-23T14:07:46;0.50;;;0.50;;
2548;SDS011;1284;53.520;10.248;2023-04-23T14:10:13;1.08;;;0.47;;
2548;SDS011;1284;53.520;10.248;2023-04-23T14:12:42;0.20;;;0.20;;
2548;SDS011;1284;53.520;10.248;2023-04-23T14:15:09;0.85;;;0.50;;
2548;SDS011;1284;53.520;10.248;2023-04-23T14:17:37;0.50;;;0.45;;
2548;SDS011;1284;53.520;10.248;2023-04-23T14:20:05;0.52;;;0.50;;
2548;SDS011;1284;53.520;10.248;2023-04-23T14:22:31;0.45;;;0.45;;
2548;SDS011;1284;53.520;10.248;2023-04-23T14:25:00;1.23;;;0.70;;
2548;SDS011;1284;53.520;10.248;2023-04-23T14:27:30;0.20;;;0.20;;
2548;SDS011;1284;53.520;10.248;2023-04-23T14:30:00;0.52;;;0.30;;
2548;SDS011;1284;53.520;10.248;2023-04-23T14:32:29;0.60;;;0.30;;
2548;SDS011;1284;53.520;10.248;2023-04-23T14:34:58;0.20;;;0.20;;
2548;SDS011;1284;53.520;10.248;2023-04-23T14:37:23;1.00;;;0.20;;
2548;SDS011;1284;53.520;10.248;2023-04-23T14:39:48;0.30;;;0.30;;
2548;SDS011;1284;53.520;10.248;2023-04-23T14:42:15;0.73;;;0.40;;
2548;SDS011;1284;53.520;10.248;2023-04-23T14:44:41;0.47;;;0.30;;
2548;SDS011;1284;53.520;10.248;2023-04-23T14:47:06;0.40;;;0.35;;
2548;SDS011;1284;53.520;10.248;2023-04-23T14:49:34;0.50;;;0.20;;
2548;SDS011;1284;53.520;10.248;2023-04-23T14:51:59;0.73;;;0.43;;
2548;SDS011;1284;53.520;10.248;2023-04-23T14:54:27;0.30;;;0.20;;
2548;SDS011;1284;53.520;10.248;2023-04-23T14:56:52;0.20;;;0.15;;
2548;SDS011;1284;53.520;10.248;2023-04-23T14:59:18;1.17;;;0.28;;
2548;SDS011;1284;53.520;10.248;2023-04-23T15:01:45;0.30;;;0.30;;
2548;SDS011;1284;53.520;10.248;2023-04-23T15:04:11;0.65;;;0.35;;
2548;SDS011;1284;53.520;10.248;2023-04-23T15:06:36;0.85;;;0.40;;
2548;SDS011;1284;53.520;10.248;2023-04-23T15:09:03;0.28;;;0.25;;
2548;SDS011;1284;53.520;10.248;2023-04-23T15:11:28;1.15;;;0.30;;
2548;SDS011;1284;53.520;10.248;2023-04-23T15:16:26;0.40;;;0.30;;